TAX73JC EDDH-BGGH
Flight info
| Callsign | TAX73JC |
|---|---|
| Flight time | N/A |
| Altitude | 32000 |
| Route | ELSOB3C ELSOB DCT DOROR DCT ELSAN DCT OVDAN DCT WIK DCT ADASI DCT ATSIX/M082F320 DCT 62N018W/M083F340 63N028W 64N039W DCT EVULO |
| Aircraft | B77L/H-SDE1E2E3FGHIJ2J3J4J5M1RWXY/LB1D1 |
Departure
| Time | N/A |
|---|---|
| Airport | Hamburg Helmut Schmidt Airport (EDDH) |
Arrival
| Time | 2026-05-07 17:29 |
|---|---|
| Airport | Nuuk International Airport (BGGH) |
| Time | Latitude | Longitude | Altitude | Speed | Heading |
|---|---|---|---|---|---|
| 2026-05-07 16:42 | 64.29471 | -44.41236 | 34169 ft | 457 kts | 272° |
| 2026-05-07 16:43 | 64.29989 | -44.56012 | 34165 ft | 468 kts | 272° |
| 2026-05-07 16:43 | 64.30503 | -44.71071 | 34150 ft | 469 kts | 271° |
| 2026-05-07 16:44 | 64.30999 | -44.86050 | 34170 ft | 469 kts | 271° |
| 2026-05-07 16:44 | 64.31477 | -45.01019 | 34170 ft | 468 kts | 271° |
| 2026-05-07 16:45 | 64.31939 | -45.15986 | 34169 ft | 468 kts | 271° |
| 2026-05-07 16:45 | 64.32385 | -45.30958 | 34193 ft | 468 kts | 271° |
| 2026-05-07 16:46 | 64.32813 | -45.45811 | 34194 ft | 467 kts | 271° |
| 2026-05-07 16:46 | 64.33231 | -45.60851 | 34192 ft | 467 kts | 271° |
| 2026-05-07 16:47 | 64.33630 | -45.75793 | 34205 ft | 466 kts | 270° |
| 2026-05-07 16:47 | 64.34012 | -45.90619 | 34204 ft | 466 kts | 270° |
| 2026-05-07 16:48 | 64.34383 | -46.05642 | 34230 ft | 466 kts | 270° |
| 2026-05-07 16:48 | 64.34735 | -46.20504 | 34210 ft | 467 kts | 270° |
| 2026-05-07 16:49 | 64.35070 | -46.35448 | 34207 ft | 465 kts | 269° |
| 2026-05-07 16:49 | 64.35397 | -46.50326 | 34202 ft | 463 kts | 269° |
| 2026-05-07 16:50 | 64.35703 | -46.65127 | 34204 ft | 460 kts | 269° |
| 2026-05-07 16:50 | 64.35994 | -46.79970 | 34199 ft | 459 kts | 269° |
| 2026-05-07 16:51 | 64.36266 | -46.94658 | 34203 ft | 458 kts | 268° |
| 2026-05-07 16:51 | 64.36522 | -47.09248 | 34201 ft | 458 kts | 268° |
| 2026-05-07 16:52 | 64.36768 | -47.23938 | 34180 ft | 454 kts | 268° |
| 2026-05-07 16:52 | 64.36994 | -47.38242 | 33704 ft | 442 kts | 267° |
| 2026-05-07 16:52 | 64.37097 | -47.45306 | 33302 ft | 437 kts | 266° |
| 2026-05-07 16:53 | 64.37203 | -47.52276 | 32803 ft | 433 kts | 266° |
| 2026-05-07 16:53 | 64.37302 | -47.59188 | 32342 ft | 428 kts | 266° |
| 2026-05-07 16:53 | 64.37392 | -47.66029 | 31887 ft | 424 kts | 265° |
| 2026-05-07 16:53 | 64.37475 | -47.72810 | 31426 ft | 420 kts | 265° |
| 2026-05-07 16:54 | 64.37556 | -47.79519 | 30983 ft | 417 kts | 265° |
| 2026-05-07 16:54 | 64.37635 | -47.86186 | 30543 ft | 413 kts | 265° |
| 2026-05-07 16:54 | 64.37713 | -47.92806 | 30085 ft | 410 kts | 265° |
| 2026-05-07 16:54 | 64.37787 | -47.99375 | 29573 ft | 407 kts | 265° |
| 2026-05-07 16:55 | 64.37859 | -48.05876 | 29132 ft | 403 kts | 265° |
| 2026-05-07 16:55 | 64.37926 | -48.12325 | 28680 ft | 400 kts | 265° |
| 2026-05-07 16:55 | 64.37994 | -48.18722 | 28263 ft | 397 kts | 264° |
| 2026-05-07 16:55 | 64.38051 | -48.25061 | 27803 ft | 394 kts | 264° |
| 2026-05-07 16:56 | 64.38102 | -48.31341 | 27358 ft | 389 kts | 263° |
| 2026-05-07 16:56 | 64.38140 | -48.37562 | 26929 ft | 386 kts | 263° |
| 2026-05-07 16:56 | 64.38240 | -48.49888 | 26082 ft | 381 kts | 263° |
| 2026-05-07 16:57 | 64.38290 | -48.55988 | 25670 ft | 379 kts | 263° |
| 2026-05-07 16:57 | 64.38336 | -48.62065 | 25258 ft | 377 kts | 263° |
| 2026-05-07 16:57 | 64.38378 | -48.68106 | 24890 ft | 375 kts | 262° |
| 2026-05-07 16:57 | 64.38415 | -48.74131 | 24447 ft | 375 kts | 262° |
| 2026-05-07 16:58 | 64.38450 | -48.80142 | 24032 ft | 373 kts | 262° |
| 2026-05-07 16:58 | 64.38482 | -48.86128 | 23607 ft | 372 kts | 262° |
| 2026-05-07 16:58 | 64.38510 | -48.92084 | 23138 ft | 370 kts | 262° |
| 2026-05-07 16:58 | 64.38537 | -48.98018 | 22698 ft | 368 kts | 262° |
| 2026-05-07 16:59 | 64.38561 | -49.03910 | 22292 ft | 365 kts | 262° |
| 2026-05-07 16:59 | 64.38583 | -49.09756 | 21882 ft | 363 kts | 262° |
| 2026-05-07 16:59 | 64.38602 | -49.15566 | 21475 ft | 361 kts | 262° |
| 2026-05-07 16:59 | 64.38618 | -49.21355 | 21117 ft | 359 kts | 262° |
| 2026-05-07 17:00 | 64.38632 | -49.27124 | 20698 ft | 359 kts | 262° |
| 2026-05-07 17:00 | 64.38645 | -49.32885 | 20293 ft | 358 kts | 262° |
| 2026-05-07 17:00 | 64.38653 | -49.38630 | 19892 ft | 357 kts | 262° |
| 2026-05-07 17:00 | 64.38659 | -49.44359 | 19476 ft | 357 kts | 262° |
| 2026-05-07 17:01 | 64.38663 | -49.50090 | 19073 ft | 356 kts | 263° |
| 2026-05-07 17:01 | 64.38666 | -49.55816 | 18683 ft | 356 kts | 263° |
| 2026-05-07 17:01 | 64.38666 | -49.61543 | 18247 ft | 357 kts | 263° |
| 2026-05-07 17:01 | 64.38665 | -49.67281 | 17780 ft | 356 kts | 263° |
| 2026-05-07 17:02 | 64.38662 | -49.72990 | 17363 ft | 354 kts | 263° |
| 2026-05-07 17:02 | 64.38657 | -49.78655 | 16969 ft | 352 kts | 263° |
| 2026-05-07 17:02 | 64.38649 | -49.84294 | 16548 ft | 350 kts | 263° |
| 2026-05-07 17:02 | 64.38640 | -49.89911 | 16215 ft | 349 kts | 264° |
| 2026-05-07 17:03 | 64.38633 | -49.95537 | 15772 ft | 352 kts | 263° |
| 2026-05-07 17:03 | 64.38612 | -50.01186 | 15353 ft | 351 kts | 263° |
| 2026-05-07 17:03 | 64.38592 | -50.06825 | 14973 ft | 350 kts | 263° |
| 2026-05-07 17:03 | 64.38563 | -50.12424 | 14580 ft | 348 kts | 263° |
| 2026-05-07 17:04 | 64.38527 | -50.18006 | 14185 ft | 346 kts | 263° |
| 2026-05-07 17:04 | 64.38490 | -50.23561 | 13802 ft | 345 kts | 263° |
| 2026-05-07 17:04 | 64.38454 | -50.29080 | 13396 ft | 343 kts | 263° |
| 2026-05-07 17:04 | 64.38414 | -50.34584 | 12975 ft | 342 kts | 263° |
| 2026-05-07 17:05 | 64.38371 | -50.40052 | 12581 ft | 340 kts | 263° |
| 2026-05-07 17:05 | 64.38327 | -50.45493 | 12201 ft | 337 kts | 264° |
| 2026-05-07 17:05 | 64.38282 | -50.50898 | 11826 ft | 335 kts | 264° |
| 2026-05-07 17:05 | 64.38235 | -50.56265 | 11465 ft | 334 kts | 264° |
| 2026-05-07 17:06 | 64.38188 | -50.61617 | 11081 ft | 333 kts | 264° |
| 2026-05-07 17:06 | 64.38136 | -50.66948 | 10734 ft | 331 kts | 264° |
| 2026-05-07 17:06 | 64.38100 | -50.70539 | 10564 ft | 328 kts | 264° |
| 2026-05-07 17:06 | 64.38050 | -50.75735 | 10412 ft | 319 kts | 264° |
| 2026-05-07 17:07 | 64.37999 | -50.80784 | 10268 ft | 310 kts | 264° |
| 2026-05-07 17:07 | 64.37933 | -50.85655 | 10139 ft | 296 kts | 262° |
| 2026-05-07 17:07 | 64.37859 | -50.90366 | 9938 ft | 292 kts | 264° |
| 2026-05-07 17:07 | 64.37818 | -50.95043 | 9615 ft | 290 kts | 264° |
| 2026-05-07 17:08 | 64.37774 | -50.99679 | 9250 ft | 289 kts | 264° |
| 2026-05-07 17:08 | 64.37728 | -51.04267 | 8898 ft | 283 kts | 264° |
| 2026-05-07 17:08 | 64.37678 | -51.08735 | 8531 ft | 274 kts | 264° |
| 2026-05-07 17:08 | 64.37620 | -51.13062 | 8243 ft | 266 kts | 263° |
| 2026-05-07 17:09 | 64.37571 | -51.17287 | 7869 ft | 259 kts | 262° |
| 2026-05-07 17:09 | 64.37518 | -51.21426 | 7604 ft | 260 kts | 262° |
| 2026-05-07 17:09 | 64.37586 | -51.25614 | 7243 ft | 267 kts | 278° |
| 2026-05-07 17:09 | 64.38181 | -51.29683 | 6867 ft | 268 kts | 283° |
| 2026-05-07 17:10 | 64.38792 | -51.33670 | 6410 ft | 262 kts | 281° |
| 2026-05-07 17:10 | 64.39366 | -51.37602 | 6051 ft | 252 kts | 280° |
| 2026-05-07 17:10 | 64.39885 | -51.41203 | 5676 ft | 222 kts | 278° |
| 2026-05-07 17:10 | 64.40359 | -51.44481 | 5161 ft | 208 kts | 274° |
| 2026-05-07 17:11 | 64.40757 | -51.47623 | 4879 ft | 199 kts | 272° |
| 2026-05-07 17:11 | 64.40756 | -51.50572 | 4630 ft | 171 kts | 232° |
| 2026-05-07 17:11 | 64.40006 | -51.52361 | 4535 ft | 149 kts | 193° |
| 2026-05-07 17:11 | 64.39010 | -51.52991 | 4502 ft | 151 kts | 192° |
| 2026-05-07 17:12 | 64.38005 | -51.53733 | 4328 ft | 153 kts | 191° |
| 2026-05-07 17:12 | 64.36994 | -51.54560 | 3976 ft | 152 kts | 191° |
| 2026-05-07 17:12 | 64.36018 | -51.55238 | 3718 ft | 141 kts | 188° |
| 2026-05-07 17:12 | 64.35080 | -51.55894 | 3558 ft | 143 kts | 192° |
| 2026-05-07 17:13 | 64.34128 | -51.56638 | 3318 ft | 145 kts | 192° |
| 2026-05-07 17:13 | 64.33180 | -51.57361 | 3084 ft | 142 kts | 191° |
| 2026-05-07 17:13 | 64.32234 | -51.58076 | 2898 ft | 144 kts | 191° |
| 2026-05-07 17:13 | 64.31272 | -51.58766 | 2660 ft | 145 kts | 191° |
| 2026-05-07 17:14 | 64.30327 | -51.59531 | 2493 ft | 145 kts | 193° |
| 2026-05-07 17:14 | 64.29387 | -51.60247 | 2294 ft | 144 kts | 192° |
| 2026-05-07 17:14 | 64.28444 | -51.60935 | 2076 ft | 139 kts | 192° |
| 2026-05-07 17:14 | 64.27565 | -51.61627 | 1903 ft | 128 kts | 192° |
| 2026-05-07 17:15 | 64.26712 | -51.62236 | 1726 ft | 129 kts | 192° |
| 2026-05-07 17:15 | 64.25856 | -51.62872 | 1509 ft | 129 kts | 193° |
| 2026-05-07 17:15 | 64.24989 | -51.63518 | 1345 ft | 134 kts | 194° |
| 2026-05-07 17:15 | 64.24093 | -51.64189 | 1159 ft | 137 kts | 194° |
| 2026-05-07 17:16 | 64.23192 | -51.64865 | 956 ft | 136 kts | 195° |
| 2026-05-07 17:16 | 64.22295 | -51.65536 | 771 ft | 133 kts | 197° |
| 2026-05-07 17:16 | 64.21427 | -51.66190 | 592 ft | 130 kts | 199° |
| 2026-05-07 17:16 | 64.20563 | -51.66853 | 425 ft | 133 kts | 199° |
| 2026-05-07 17:17 | 64.19667 | -51.67513 | 522 ft | 137 kts | 198° |
| 2026-05-07 17:17 | 64.18818 | -51.68296 | 1462 ft | 127 kts | 201° |
| 2026-05-07 17:17 | 64.17980 | -51.69379 | 1740 ft | 149 kts | 203° |
| 2026-05-07 17:17 | 64.17052 | -51.70610 | 1885 ft | 157 kts | 203° |
| 2026-05-07 17:18 | 64.16223 | -51.72291 | 2035 ft | 170 kts | 227° |
| 2026-05-07 17:18 | 64.15931 | -51.75255 | 2139 ft | 214 kts | 258° |
| 2026-05-07 17:18 | 64.16362 | -51.78787 | 2172 ft | 249 kts | 292° |
| 2026-05-07 17:18 | 64.17653 | -51.81691 | 2172 ft | 274 kts | 330° |
| 2026-05-07 17:19 | 64.19523 | -51.82607 | 2229 ft | 278 kts | 8° |
| 2026-05-07 17:19 | 64.21403 | -51.81771 | 2386 ft | 274 kts | 19° |
| 2026-05-07 17:19 | 64.23265 | -51.80573 | 2507 ft | 282 kts | 20° |
| 2026-05-07 17:19 | 64.25178 | -51.79379 | 2656 ft | 288 kts | 18° |
| 2026-05-07 17:20 | 64.27135 | -51.78250 | 2896 ft | 292 kts | 17° |
| 2026-05-07 17:20 | 64.29125 | -51.77160 | 2973 ft | 295 kts | 17° |
| 2026-05-07 17:20 | 64.31123 | -51.76119 | 2985 ft | 294 kts | 16° |
| 2026-05-07 17:20 | 64.33119 | -51.75116 | 3015 ft | 293 kts | 15° |
| 2026-05-07 17:21 | 64.35101 | -51.74165 | 2941 ft | 287 kts | 15° |
| 2026-05-07 17:21 | 64.37028 | -51.73223 | 3004 ft | 280 kts | 16° |
| 2026-05-07 17:21 | 64.38887 | -51.72282 | 2997 ft | 265 kts | 16° |
| 2026-05-07 17:21 | 64.40614 | -51.71322 | 2950 ft | 242 kts | 27° |
| 2026-05-07 17:22 | 64.41953 | -51.69267 | 3046 ft | 225 kts | 61° |
| 2026-05-07 17:22 | 64.42589 | -51.66231 | 3026 ft | 201 kts | 88° |
| 2026-05-07 17:22 | 64.42772 | -51.63126 | 3041 ft | 190 kts | 101° |
| 2026-05-07 17:22 | 64.42564 | -51.60347 | 3046 ft | 165 kts | 119° |
| 2026-05-07 17:23 | 64.42111 | -51.57984 | 3008 ft | 153 kts | 137° |
| 2026-05-07 17:23 | 64.41373 | -51.56324 | 3032 ft | 148 kts | 146° |
| 2026-05-07 17:23 | 64.40523 | -51.55008 | 3054 ft | 145 kts | 154° |
| 2026-05-07 17:23 | 64.39806 | -51.53352 | 3020 ft | 146 kts | 140° |
| 2026-05-07 17:24 | 64.38930 | -51.52378 | 3017 ft | 145 kts | 181° |
| 2026-05-07 17:24 | 64.37987 | -51.53312 | 3056 ft | 154 kts | 200° |
| 2026-05-07 17:24 | 64.37008 | -51.54253 | 3053 ft | 153 kts | 194° |
| 2026-05-07 17:24 | 64.36014 | -51.55143 | 3042 ft | 153 kts | 194° |
| 2026-05-07 17:25 | 64.35037 | -51.55936 | 3042 ft | 145 kts | 192° |
| 2026-05-07 17:25 | 64.34091 | -51.56645 | 3007 ft | 142 kts | 192° |
| 2026-05-07 17:25 | 64.33174 | -51.57351 | 3023 ft | 140 kts | 192° |
| 2026-05-07 17:25 | 64.32234 | -51.58173 | 2871 ft | 148 kts | 192° |
| 2026-05-07 17:26 | 64.31250 | -51.58809 | 2720 ft | 147 kts | 189° |
| 2026-05-07 17:26 | 64.30274 | -51.59515 | 2489 ft | 145 kts | 193° |
| 2026-05-07 17:26 | 64.29325 | -51.60275 | 2296 ft | 144 kts | 193° |
| 2026-05-07 17:26 | 64.28371 | -51.60987 | 2098 ft | 145 kts | 192° |
| 2026-05-07 17:27 | 64.27404 | -51.61712 | 1895 ft | 145 kts | 193° |
| 2026-05-07 17:27 | 64.26481 | -51.62404 | 1693 ft | 133 kts | 193° |
| 2026-05-07 17:27 | 64.25623 | -51.63050 | 1516 ft | 128 kts | 193° |
| 2026-05-07 17:27 | 64.24766 | -51.63687 | 1321 ft | 132 kts | 193° |
| 2026-05-07 17:28 | 64.23879 | -51.64349 | 1133 ft | 135 kts | 194° |
| 2026-05-07 17:28 | 64.22983 | -51.65022 | 938 ft | 135 kts | 195° |
| 2026-05-07 17:28 | 64.22082 | -51.65694 | 743 ft | 136 kts | 196° |
| 2026-05-07 17:28 | 64.21181 | -51.66410 | 568 ft | 139 kts | 197° |
| 2026-05-07 17:29 | 64.20260 | -51.67071 | 365 ft | 137 kts | 198° |
| 2026-05-07 17:29 | 64.19396 | -51.67710 | 294 ft | 119 kts | 197° |
| 2026-05-07 17:29 | 64.18859 | -51.68106 | 286 ft | 33 kts | 198° |
| 2026-05-07 17:29 | 64.18736 | -51.68199 | 286 ft | 12 kts | 198° |
| 2026-05-07 17:30 | 64.18662 | -51.68183 | 286 ft | 11 kts | 136° |
| 2026-05-07 17:30 | 64.18632 | -51.68018 | 286 ft | 10 kts | 107° |
| 2026-05-07 17:30 | 64.18618 | -51.67928 | 286 ft | 5 kts | 108° |
| 2026-05-07 17:30 | 64.18607 | -51.67852 | 286 ft | 5 kts | 117° |
| 2026-05-07 17:31 | 64.18580 | -51.67799 | 286 ft | 5 kts | 146° |
| 2026-05-07 17:31 | 64.18561 | -51.67770 | 286 ft | 2 kts | 147° |
| 2026-05-07 17:31 | 64.18558 | -51.67766 | 286 ft | 0 kts | 147° |